BTK6760 WADD-WAAA
Flight info
| Callsign | BTK6760 |
|---|---|
| Flight time | 1h 4m |
| Altitude | 33000 |
| Route | PEDET W41 LIPOT |
| Aircraft | A320/M-SDE3FGHIRWY/LB1 |
Departure
| Time | 2026-04-23 13:03 |
|---|---|
| Airport | Denpasar I Gusti Ngurah Rai International Airport (WADD) |
Arrival
| Time | 2026-04-23 14:08 |
|---|---|
| Airport | Sultan Hasanuddin International Airport (WAAA) |
| Time | Latitude | Longitude | Altitude | Speed | Heading |
|---|---|---|---|---|---|
| 2026-04-23 12:39 | -8.74624 | 115.16136 | 33 ft | 0 kts | 357° |
| 2026-04-23 12:55 | -8.74629 | 115.16137 | 33 ft | 4 kts | 357° |
| 2026-04-23 12:55 | -8.74656 | 115.16138 | 30 ft | 3 kts | 358° |
| 2026-04-23 12:56 | -8.74677 | 115.16140 | 30 ft | 4 kts | 342° |
| 2026-04-23 12:56 | -8.74697 | 115.16152 | 30 ft | 4 kts | 298° |
| 2026-04-23 12:56 | -8.74703 | 115.16177 | 32 ft | 4 kts | 265° |
| 2026-04-23 12:56 | -8.74701 | 115.16198 | 32 ft | 0 kts | 268° |
| 2026-04-23 12:59 | -8.74703 | 115.16147 | 33 ft | 9 kts | 267° |
| 2026-04-23 13:00 | -8.74706 | 115.16090 | 33 ft | 7 kts | 268° |
| 2026-04-23 13:00 | -8.74708 | 115.16039 | 33 ft | 9 kts | 268° |
| 2026-04-23 13:00 | -8.74712 | 115.15953 | 33 ft | 12 kts | 267° |
| 2026-04-23 13:00 | -8.74715 | 115.15871 | 33 ft | 11 kts | 268° |
| 2026-04-23 13:01 | -8.74717 | 115.15799 | 32 ft | 10 kts | 268° |
| 2026-04-23 13:01 | -8.74720 | 115.15737 | 32 ft | 8 kts | 268° |
| 2026-04-23 13:01 | -8.74722 | 115.15683 | 32 ft | 7 kts | 268° |
| 2026-04-23 13:01 | -8.74724 | 115.15634 | 32 ft | 8 kts | 268° |
| 2026-04-23 13:02 | -8.74728 | 115.15538 | 32 ft | 19 kts | 268° |
| 2026-04-23 13:02 | -8.74743 | 115.15411 | 31 ft | 17 kts | 240° |
| 2026-04-23 13:02 | -8.74851 | 115.15392 | 29 ft | 18 kts | 177° |
| 2026-04-23 13:02 | -8.74895 | 115.15482 | 29 ft | 19 kts | 87° |
| 2026-04-23 13:03 | -8.74882 | 115.15787 | 28 ft | 78 kts | 87° |
| 2026-04-23 13:03 | -8.74851 | 115.16540 | 29 ft | 135 kts | 88° |
| 2026-04-23 13:03 | -8.74809 | 115.17637 | 172 ft | 167 kts | 88° |
| 2026-04-23 13:03 | -8.74775 | 115.18786 | 954 ft | 160 kts | 88° |
| 2026-04-23 13:04 | -8.74735 | 115.19926 | 1616 ft | 164 kts | 87° |
| 2026-04-23 13:04 | -8.74687 | 115.21121 | 2058 ft | 179 kts | 88° |
| 2026-04-23 13:04 | -8.74631 | 115.22450 | 2344 ft | 200 kts | 88° |
| 2026-04-23 13:04 | -8.74574 | 115.23945 | 2585 ft | 226 kts | 88° |
| 2026-04-23 13:05 | -8.74515 | 115.25623 | 2958 ft | 250 kts | 88° |
| 2026-04-23 13:05 | -8.74470 | 115.26806 | 3344 ft | 258 kts | 88° |
| 2026-04-23 13:05 | -8.74390 | 115.28645 | 4112 ft | 264 kts | 88° |
| 2026-04-23 13:05 | -8.74307 | 115.30512 | 4940 ft | 268 kts | 87° |
| 2026-04-23 13:06 | -8.74130 | 115.34311 | 6551 ft | 273 kts | 87° |
| 2026-04-23 13:06 | -8.74048 | 115.36238 | 7298 ft | 277 kts | 88° |
| 2026-04-23 13:06 | -8.73972 | 115.38202 | 8001 ft | 282 kts | 88° |
| 2026-04-23 13:07 | -8.73902 | 115.40196 | 8707 ft | 287 kts | 88° |
| 2026-04-23 13:07 | -8.73829 | 115.42213 | 8897 ft | 286 kts | 87° |
| 2026-04-23 13:07 | -8.73749 | 115.44227 | 8999 ft | 286 kts | 87° |
| 2026-04-23 13:07 | -8.73661 | 115.46238 | 9013 ft | 286 kts | 87° |
| 2026-04-23 13:08 | -8.73561 | 115.48240 | 9019 ft | 285 kts | 85° |
| 2026-04-23 13:08 | -8.73190 | 115.50203 | 9008 ft | 285 kts | 70° |
| 2026-04-23 13:08 | -8.72298 | 115.51991 | 9009 ft | 285 kts | 55° |
| 2026-04-23 13:08 | -8.70959 | 115.53461 | 9017 ft | 285 kts | 42° |
| 2026-04-23 13:09 | -8.69492 | 115.54826 | 9019 ft | 286 kts | 44° |
| 2026-04-23 13:09 | -8.68077 | 115.56237 | 9022 ft | 286 kts | 46° |
| 2026-04-23 13:09 | -8.66693 | 115.57653 | 9020 ft | 286 kts | 46° |
| 2026-04-23 13:09 | -8.65298 | 115.59085 | 9020 ft | 286 kts | 46° |
| 2026-04-23 13:10 | -8.63899 | 115.60515 | 9021 ft | 286 kts | 46° |
| 2026-04-23 13:10 | -8.62497 | 115.61938 | 9021 ft | 286 kts | 45° |
| 2026-04-23 13:10 | -8.61079 | 115.63367 | 9236 ft | 289 kts | 45° |
| 2026-04-23 13:10 | -8.59648 | 115.64804 | 10038 ft | 291 kts | 45° |
| 2026-04-23 13:11 | -8.58175 | 115.66282 | 10404 ft | 309 kts | 45° |
| 2026-04-23 13:11 | -8.56592 | 115.67872 | 10573 ft | 332 kts | 46° |
| 2026-04-23 13:11 | -8.55114 | 115.69712 | 11017 ft | 342 kts | 58° |
| 2026-04-23 13:11 | -8.54036 | 115.71867 | 11622 ft | 346 kts | 69° |
| 2026-04-23 13:12 | -8.53180 | 115.74151 | 12270 ft | 349 kts | 69° |
| 2026-04-23 13:12 | -8.52312 | 115.76450 | 12905 ft | 352 kts | 69° |
| 2026-04-23 13:12 | -8.51429 | 115.78772 | 13522 ft | 355 kts | 69° |
| 2026-04-23 13:12 | -8.50537 | 115.81111 | 14094 ft | 358 kts | 68° |
| 2026-04-23 13:13 | -8.49637 | 115.83469 | 14638 ft | 361 kts | 68° |
| 2026-04-23 13:13 | -8.48739 | 115.85825 | 15174 ft | 364 kts | 68° |
| 2026-04-23 13:13 | -8.47828 | 115.88221 | 15713 ft | 367 kts | 68° |
| 2026-04-23 13:13 | -8.46907 | 115.90643 | 16239 ft | 370 kts | 68° |
| 2026-04-23 13:14 | -8.45981 | 115.93082 | 16781 ft | 373 kts | 68° |
| 2026-04-23 13:14 | -8.45045 | 115.95547 | 17292 ft | 376 kts | 68° |
| 2026-04-23 13:14 | -8.44103 | 115.98025 | 17808 ft | 379 kts | 68° |
| 2026-04-23 13:14 | -8.43153 | 116.00529 | 18286 ft | 382 kts | 68° |
| 2026-04-23 13:15 | -8.42197 | 116.03046 | 18728 ft | 385 kts | 68° |
| 2026-04-23 13:15 | -8.41233 | 116.05582 | 19150 ft | 388 kts | 68° |
| 2026-04-23 13:15 | -8.40263 | 116.08136 | 19576 ft | 391 kts | 68° |
| 2026-04-23 13:15 | -8.39285 | 116.10707 | 20006 ft | 393 kts | 68° |
| 2026-04-23 13:16 | -8.38296 | 116.13299 | 20410 ft | 396 kts | 68° |
| 2026-04-23 13:16 | -8.37304 | 116.15900 | 20822 ft | 399 kts | 68° |
| 2026-04-23 13:16 | -8.36303 | 116.18525 | 21221 ft | 401 kts | 68° |
| 2026-04-23 13:16 | -8.35298 | 116.21168 | 21623 ft | 404 kts | 68° |
| 2026-04-23 13:17 | -8.34289 | 116.23824 | 22023 ft | 407 kts | 68° |
| 2026-04-23 13:17 | -8.33272 | 116.26500 | 22416 ft | 409 kts | 69° |
| 2026-04-23 13:17 | -8.32247 | 116.29196 | 22803 ft | 412 kts | 68° |
| 2026-04-23 13:17 | -8.31219 | 116.31903 | 23193 ft | 414 kts | 69° |
| 2026-04-23 13:18 | -8.30202 | 116.34590 | 23553 ft | 417 kts | 69° |
| 2026-04-23 13:18 | -8.29166 | 116.37329 | 23862 ft | 419 kts | 69° |
| 2026-04-23 13:18 | -8.28122 | 116.40084 | 24180 ft | 421 kts | 69° |
| 2026-04-23 13:18 | -8.27069 | 116.42851 | 24499 ft | 423 kts | 68° |
| 2026-04-23 13:19 | -8.26008 | 116.45623 | 24823 ft | 425 kts | 68° |
| 2026-04-23 13:19 | -8.24942 | 116.48409 | 25142 ft | 426 kts | 68° |
| 2026-04-23 13:19 | -8.23871 | 116.51211 | 25451 ft | 428 kts | 69° |
| 2026-04-23 13:19 | -8.22672 | 116.53964 | 25744 ft | 429 kts | 60° |
| 2026-04-23 13:20 | -8.20922 | 116.56406 | 26034 ft | 431 kts | 47° |
| 2026-04-23 13:20 | -8.18647 | 116.58383 | 26325 ft | 433 kts | 33° |
| 2026-04-23 13:20 | -8.15969 | 116.59779 | 26603 ft | 435 kts | 20° |
| 2026-04-23 13:20 | -8.13023 | 116.60512 | 26876 ft | 438 kts | 7° |
| 2026-04-23 13:21 | -8.09968 | 116.60721 | 27150 ft | 441 kts | 4° |
| 2026-04-23 13:21 | -8.06901 | 116.60897 | 27438 ft | 442 kts | 4° |
| 2026-04-23 13:21 | -8.03819 | 116.61076 | 27723 ft | 444 kts | 4° |
| 2026-04-23 13:21 | -8.00767 | 116.61255 | 27997 ft | 446 kts | 4° |
| 2026-04-23 13:22 | -7.97661 | 116.61436 | 28269 ft | 448 kts | 4° |
| 2026-04-23 13:22 | -7.94543 | 116.61618 | 28539 ft | 450 kts | 5° |
| 2026-04-23 13:22 | -7.91417 | 116.61808 | 28803 ft | 451 kts | 5° |
| 2026-04-23 13:22 | -7.88274 | 116.62002 | 29063 ft | 453 kts | 5° |
| 2026-04-23 13:23 | -7.85125 | 116.62195 | 29308 ft | 455 kts | 5° |
| 2026-04-23 13:23 | -7.81956 | 116.62388 | 29551 ft | 456 kts | 5° |
| 2026-04-23 13:23 | -7.78780 | 116.62576 | 29792 ft | 458 kts | 5° |
| 2026-04-23 13:23 | -7.75586 | 116.62764 | 30020 ft | 460 kts | 5° |
| 2026-04-23 13:24 | -7.72387 | 116.62955 | 30214 ft | 462 kts | 5° |
| 2026-04-23 13:24 | -7.69174 | 116.63145 | 30416 ft | 463 kts | 5° |
| 2026-04-23 13:24 | -7.65950 | 116.63335 | 30612 ft | 465 kts | 5° |
| 2026-04-23 13:24 | -7.62717 | 116.63526 | 30808 ft | 466 kts | 5° |
| 2026-04-23 13:25 | -7.59479 | 116.63720 | 31019 ft | 467 kts | 5° |
| 2026-04-23 13:25 | -7.56260 | 116.64081 | 31295 ft | 465 kts | 13° |
| 2026-04-23 13:25 | -7.53172 | 116.64998 | 31570 ft | 462 kts | 23° |
| 2026-04-23 13:25 | -7.50315 | 116.66460 | 31840 ft | 460 kts | 33° |
| 2026-04-23 13:26 | -7.47771 | 116.68405 | 32104 ft | 459 kts | 43° |
| 2026-04-23 13:26 | -7.45603 | 116.70756 | 32367 ft | 458 kts | 50° |
| 2026-04-23 13:26 | -7.43581 | 116.73177 | 32634 ft | 458 kts | 50° |
| 2026-04-23 13:26 | -7.41497 | 116.75665 | 32864 ft | 458 kts | 50° |
| 2026-04-23 13:27 | -7.39476 | 116.78075 | 32916 ft | 452 kts | 50° |
| 2026-04-23 13:27 | -7.35416 | 116.82910 | 32923 ft | 447 kts | 50° |
| 2026-04-23 13:28 | -7.31424 | 116.87663 | 32923 ft | 449 kts | 50° |
| 2026-04-23 13:28 | -7.27414 | 116.92456 | 32928 ft | 447 kts | 50° |
| 2026-04-23 13:29 | -7.23395 | 116.97239 | 32923 ft | 446 kts | 50° |
| 2026-04-23 13:29 | -7.19383 | 117.02012 | 32924 ft | 446 kts | 50° |
| 2026-04-23 13:30 | -7.15375 | 117.06792 | 32930 ft | 446 kts | 50° |
| 2026-04-23 13:30 | -7.11370 | 117.11568 | 32931 ft | 447 kts | 50° |
| 2026-04-23 13:31 | -7.07347 | 117.16346 | 32932 ft | 447 kts | 50° |
| 2026-04-23 13:31 | -7.03352 | 117.21085 | 32930 ft | 447 kts | 50° |
| 2026-04-23 13:32 | -6.99328 | 117.25870 | 32931 ft | 447 kts | 50° |
| 2026-04-23 13:32 | -6.95316 | 117.30649 | 32927 ft | 447 kts | 50° |
| 2026-04-23 13:33 | -6.91289 | 117.35434 | 32930 ft | 447 kts | 50° |
| 2026-04-23 13:33 | -6.87268 | 117.40220 | 32932 ft | 447 kts | 50° |
| 2026-04-23 13:34 | -6.83242 | 117.44991 | 32935 ft | 447 kts | 50° |
| 2026-04-23 13:34 | -6.79221 | 117.49771 | 32932 ft | 447 kts | 50° |
| 2026-04-23 13:35 | -6.75221 | 117.54524 | 32932 ft | 448 kts | 50° |
| 2026-04-23 13:35 | -6.71184 | 117.59304 | 32928 ft | 448 kts | 50° |
| 2026-04-23 13:36 | -6.66980 | 117.63941 | 32923 ft | 450 kts | 41° |
| 2026-04-23 13:36 | -6.62215 | 117.68025 | 32920 ft | 450 kts | 41° |
| 2026-04-23 13:37 | -6.57432 | 117.72109 | 32915 ft | 451 kts | 41° |
| 2026-04-23 13:37 | -6.52657 | 117.76200 | 32917 ft | 451 kts | 41° |
| 2026-04-23 13:38 | -6.47884 | 117.80299 | 32920 ft | 451 kts | 41° |
| 2026-04-23 13:38 | -6.43106 | 117.84394 | 32923 ft | 451 kts | 41° |
| 2026-04-23 13:39 | -6.38353 | 117.88462 | 32925 ft | 451 kts | 41° |
| 2026-04-23 13:39 | -6.33569 | 117.92554 | 32926 ft | 451 kts | 41° |
| 2026-04-23 13:40 | -6.28785 | 117.96640 | 32923 ft | 451 kts | 41° |
| 2026-04-23 13:40 | -6.24009 | 118.00731 | 32926 ft | 451 kts | 41° |
| 2026-04-23 13:41 | -6.19233 | 118.04815 | 32924 ft | 451 kts | 41° |
| 2026-04-23 13:41 | -6.14447 | 118.08901 | 32924 ft | 451 kts | 41° |
| 2026-04-23 13:42 | -6.09666 | 118.12985 | 32924 ft | 451 kts | 41° |
| 2026-04-23 13:42 | -6.04912 | 118.17039 | 32922 ft | 451 kts | 41° |
| 2026-04-23 13:43 | -6.00134 | 118.21120 | 32926 ft | 451 kts | 41° |
| 2026-04-23 13:43 | -5.95351 | 118.25212 | 32923 ft | 451 kts | 41° |
| 2026-04-23 13:44 | -5.90567 | 118.29297 | 32919 ft | 451 kts | 41° |
| 2026-04-23 13:44 | -5.85783 | 118.33375 | 32915 ft | 451 kts | 41° |
| 2026-04-23 13:45 | -5.81802 | 118.36768 | 32918 ft | 451 kts | 41° |
| 2026-04-23 13:45 | -5.76216 | 118.41541 | 32792 ft | 452 kts | 41° |
| 2026-04-23 13:45 | -5.73827 | 118.43584 | 32544 ft | 451 kts | 41° |
| 2026-04-23 13:46 | -5.71442 | 118.45620 | 32300 ft | 449 kts | 41° |
| 2026-04-23 13:46 | -5.69069 | 118.47644 | 32068 ft | 446 kts | 41° |
| 2026-04-23 13:46 | -5.66709 | 118.49656 | 31949 ft | 444 kts | 41° |
| 2026-04-23 13:46 | -5.64528 | 118.51780 | 31832 ft | 442 kts | 47° |
| 2026-04-23 13:47 | -5.62438 | 118.54041 | 31455 ft | 441 kts | 47° |
| 2026-04-23 13:47 | -5.60334 | 118.56314 | 31005 ft | 436 kts | 47° |
| 2026-04-23 13:47 | -5.58279 | 118.58528 | 30571 ft | 431 kts | 47° |
| 2026-04-23 13:47 | -5.56246 | 118.60715 | 30141 ft | 427 kts | 47° |
| 2026-04-23 13:48 | -5.54229 | 118.62884 | 29662 ft | 423 kts | 47° |
| 2026-04-23 13:48 | -5.52234 | 118.65029 | 29132 ft | 419 kts | 47° |
| 2026-04-23 13:48 | -5.50917 | 118.66444 | 28789 ft | 417 kts | 47° |
| 2026-04-23 13:48 | -5.48281 | 118.69275 | 28037 ft | 413 kts | 47° |
| 2026-04-23 13:49 | -5.46331 | 118.71373 | 27513 ft | 409 kts | 47° |
| 2026-04-23 13:49 | -5.45048 | 118.72755 | 27174 ft | 407 kts | 47° |
| 2026-04-23 13:49 | -5.43094 | 118.74795 | 26671 ft | 404 kts | 43° |
| 2026-04-23 13:49 | -5.40884 | 118.76522 | 26175 ft | 401 kts | 34° |
| 2026-04-23 13:50 | -5.37792 | 118.78592 | 25526 ft | 398 kts | 34° |
| 2026-04-23 13:50 | -5.36275 | 118.79612 | 25209 ft | 396 kts | 34° |
| 2026-04-23 13:50 | -5.33993 | 118.81150 | 24740 ft | 393 kts | 34° |
| 2026-04-23 13:50 | -5.31728 | 118.82676 | 24277 ft | 391 kts | 34° |
| 2026-04-23 13:51 | -5.29471 | 118.84194 | 23822 ft | 389 kts | 34° |
| 2026-04-23 13:51 | -5.27259 | 118.85682 | 23342 ft | 386 kts | 34° |
| 2026-04-23 13:51 | -5.25031 | 118.87182 | 22750 ft | 385 kts | 34° |
| 2026-04-23 13:51 | -5.22810 | 118.88680 | 22172 ft | 384 kts | 34° |
| 2026-04-23 13:52 | -5.20590 | 118.90173 | 21595 ft | 383 kts | 34° |
| 2026-04-23 13:52 | -5.18378 | 118.91659 | 21038 ft | 383 kts | 34° |
| 2026-04-23 13:52 | -5.16157 | 118.93120 | 20491 ft | 382 kts | 31° |
| 2026-04-23 13:52 | -5.13742 | 118.94210 | 19947 ft | 378 kts | 19° |
| 2026-04-23 13:53 | -5.11209 | 118.94761 | 19436 ft | 372 kts | 7° |
| 2026-04-23 13:53 | -5.08637 | 118.94828 | 19175 ft | 368 kts | 1° |
| 2026-04-23 13:53 | -5.06054 | 118.94823 | 18951 ft | 366 kts | 1° |
| 2026-04-23 13:53 | -5.03514 | 118.94825 | 18735 ft | 364 kts | 1° |
| 2026-04-23 13:54 | -5.00983 | 118.94828 | 18512 ft | 363 kts | 1° |
| 2026-04-23 13:54 | -4.98457 | 118.94830 | 18217 ft | 361 kts | 1° |
| 2026-04-23 13:54 | -4.95934 | 118.94831 | 17603 ft | 364 kts | 1° |
| 2026-04-23 13:54 | -4.93396 | 118.94831 | 17005 ft | 366 kts | 1° |
| 2026-04-23 13:55 | -4.90843 | 118.94832 | 16413 ft | 367 kts | 1° |
| 2026-04-23 13:55 | -4.88278 | 118.94833 | 15822 ft | 370 kts | 1° |
| 2026-04-23 13:55 | -4.85702 | 118.94835 | 15235 ft | 372 kts | 1° |
| 2026-04-23 13:55 | -4.83165 | 118.95106 | 14839 ft | 363 kts | 19° |
| 2026-04-23 13:56 | -4.80966 | 118.96228 | 14292 ft | 347 kts | 34° |
| 2026-04-23 13:56 | -4.79010 | 118.97507 | 14159 ft | 325 kts | 34° |
| 2026-04-23 13:56 | -4.77175 | 118.98755 | 13749 ft | 314 kts | 41° |
| 2026-04-23 13:56 | -4.75707 | 119.00334 | 13149 ft | 308 kts | 57° |
| 2026-04-23 13:57 | -4.74758 | 119.02231 | 12508 ft | 304 kts | 71° |
| 2026-04-23 13:57 | -4.74051 | 119.04221 | 11856 ft | 302 kts | 70° |
| 2026-04-23 13:57 | -4.73344 | 119.06195 | 11227 ft | 300 kts | 70° |
| 2026-04-23 13:57 | -4.72641 | 119.08156 | 10618 ft | 297 kts | 70° |
| 2026-04-23 13:58 | -4.71941 | 119.10107 | 10015 ft | 295 kts | 70° |
| 2026-04-23 13:58 | -4.71255 | 119.12024 | 9624 ft | 288 kts | 70° |
| 2026-04-23 13:58 | -4.70576 | 119.13921 | 9494 ft | 289 kts | 70° |
| 2026-04-23 13:58 | -4.69895 | 119.15822 | 9371 ft | 290 kts | 70° |
| 2026-04-23 13:59 | -4.69214 | 119.17718 | 9223 ft | 288 kts | 70° |
| 2026-04-23 13:59 | -4.68797 | 119.19633 | 8868 ft | 285 kts | 89° |
| 2026-04-23 13:59 | -4.69125 | 119.21576 | 8499 ft | 284 kts | 111° |
| 2026-04-23 13:59 | -4.70173 | 119.23239 | 8123 ft | 283 kts | 134° |
| 2026-04-23 14:00 | -4.71185 | 119.24071 | 7891 ft | 283 kts | 145° |
| 2026-04-23 14:00 | -4.73367 | 119.25510 | 7559 ft | 274 kts | 145° |
| 2026-04-23 14:00 | -4.74927 | 119.26538 | 7437 ft | 262 kts | 145° |
| 2026-04-23 14:00 | -4.76420 | 119.27522 | 7320 ft | 252 kts | 145° |
| 2026-04-23 14:01 | -4.77853 | 119.28471 | 7174 ft | 243 kts | 145° |
| 2026-04-23 14:01 | -4.79257 | 119.29401 | 6913 ft | 239 kts | 145° |
| 2026-04-23 14:01 | -4.80638 | 119.30317 | 6621 ft | 237 kts | 145° |
| 2026-04-23 14:01 | -4.82013 | 119.31229 | 6327 ft | 236 kts | 145° |
| 2026-04-23 14:02 | -4.83377 | 119.32136 | 6021 ft | 235 kts | 145° |
| 2026-04-23 14:02 | -4.84737 | 119.33040 | 5706 ft | 233 kts | 145° |
| 2026-04-23 14:02 | -4.86087 | 119.33937 | 5406 ft | 232 kts | 145° |
| 2026-04-23 14:02 | -4.87429 | 119.34829 | 5101 ft | 231 kts | 145° |
| 2026-04-23 14:03 | -4.88765 | 119.35717 | 4806 ft | 230 kts | 145° |
| 2026-04-23 14:03 | -4.90037 | 119.36702 | 4440 ft | 230 kts | 135° |
| 2026-04-23 14:03 | -4.91130 | 119.37864 | 4134 ft | 229 kts | 130° |
| 2026-04-23 14:03 | -4.92164 | 119.39069 | 3835 ft | 227 kts | 130° |
| 2026-04-23 14:04 | -4.93179 | 119.40259 | 3565 ft | 227 kts | 131° |
| 2026-04-23 14:04 | -4.93784 | 119.40966 | 3393 ft | 227 kts | 131° |
| 2026-04-23 14:04 | -4.94525 | 119.41830 | 3187 ft | 227 kts | 131° |
| 2026-04-23 14:05 | -4.95552 | 119.43027 | 2891 ft | 226 kts | 131° |
| 2026-04-23 14:05 | -4.96574 | 119.44219 | 2603 ft | 224 kts | 131° |
| 2026-04-23 14:05 | -4.97585 | 119.45398 | 2316 ft | 219 kts | 131° |
| 2026-04-23 14:05 | -4.98557 | 119.46531 | 2039 ft | 208 kts | 131° |
| 2026-04-23 14:06 | -4.99474 | 119.47601 | 1799 ft | 195 kts | 131° |
| 2026-04-23 14:06 | -5.00330 | 119.48600 | 1540 ft | 181 kts | 132° |
| 2026-04-23 14:06 | -5.01122 | 119.49523 | 1309 ft | 171 kts | 132° |
| 2026-04-23 14:06 | -5.01878 | 119.50405 | 1101 ft | 161 kts | 131° |
| 2026-04-23 14:07 | -5.02593 | 119.51236 | 905 ft | 153 kts | 132° |
| 2026-04-23 14:07 | -5.03967 | 119.52813 | 540 ft | 148 kts | 129° |
| 2026-04-23 14:07 | -5.04634 | 119.53600 | 301 ft | 147 kts | 130° |
| 2026-04-23 14:08 | -5.05300 | 119.54384 | 122 ft | 148 kts | 130° |
| 2026-04-23 14:08 | -5.05942 | 119.55136 | 41 ft | 132 kts | 130° |
| 2026-04-23 14:08 | -5.06347 | 119.55615 | 44 ft | 46 kts | 130° |
| 2026-04-23 14:08 | -5.06439 | 119.55722 | 43 ft | 25 kts | 130° |
| 2026-04-23 14:09 | -5.06526 | 119.55757 | 40 ft | 17 kts | 206° |
| 2026-04-23 14:09 | -5.06633 | 119.55698 | 41 ft | 18 kts | 210° |
| 2026-04-23 14:09 | -5.06747 | 119.55632 | 41 ft | 20 kts | 210° |
| 2026-04-23 14:09 | -5.06873 | 119.55560 | 41 ft | 22 kts | 210° |
| 2026-04-23 14:10 | -5.07010 | 119.55480 | 41 ft | 24 kts | 210° |
| 2026-04-23 14:10 | -5.07157 | 119.55394 | 41 ft | 26 kts | 210° |
| 2026-04-23 14:10 | -5.07382 | 119.55266 | 41 ft | 44 kts | 210° |
| 2026-04-23 14:10 | -5.07630 | 119.55123 | 41 ft | 20 kts | 213° |
| 2026-04-23 14:11 | -5.07618 | 119.55075 | 41 ft | 14 kts | 312° |
| 2026-04-23 14:11 | -5.07587 | 119.54952 | 41 ft | 13 kts | 256° |
| 2026-04-23 14:11 | -5.07599 | 119.54921 | 41 ft | 7 kts | 237° |
| 2026-04-23 14:11 | -5.07724 | 119.54841 | 41 ft | 26 kts | 210° |
| 2026-04-23 14:12 | -5.07784 | 119.54784 | 41 ft | 5 kts | 296° |
| 2026-04-23 14:12 | -5.07782 | 119.54782 | 41 ft | 0 kts | 299° |
| 2026-04-23 14:12 | -5.07773 | 119.54765 | 39 ft | 6 kts | 298° |
| 2026-04-23 14:13 | -5.07760 | 119.54742 | 41 ft | 0 kts | 300° |
| 2026-04-23 14:13 | -5.07759 | 119.54741 | 41 ft | 0 kts | 300° |
| 2026-04-23 14:13 | -5.07754 | 119.54732 | 39 ft | 2 kts | 300° |
| 2026-04-23 14:13 | -5.07753 | 119.54730 | 40 ft | 0 kts | 301° |